createdAt,value
2023-10-12T00:01:59.561Z,10.47
2023-10-12T00:04:44.797Z,10.48
2023-10-12T00:07:16.626Z,10.47
2023-10-12T00:09:50.147Z,10.46
2023-10-12T00:12:22.580Z,10.44
2023-10-12T00:14:49.941Z,10.43
2023-10-12T00:17:20.372Z,10.42
2023-10-12T00:19:47.889Z,10.41
2023-10-12T00:22:16.677Z,10.42
2023-10-12T00:24:45.145Z,10.43
2023-10-12T00:27:14.033Z,10.45
2023-10-12T00:29:41.400Z,10.46
2023-10-12T00:32:11.792Z,10.47
2023-10-12T00:34:40.320Z,10.50
2023-10-12T00:37:09.319Z,10.52
2023-10-12T00:39:51.774Z,10.57
2023-10-12T00:42:21.067Z,10.60
2023-10-12T00:44:50.459Z,10.62
2023-10-12T00:47:30.413Z,10.66
2023-10-12T00:49:59.372Z,10.68
2023-10-12T00:52:36.466Z,10.71
2023-10-12T00:55:22.794Z,10.74
2023-10-12T00:57:51.686Z,10.76
2023-10-12T01:00:19.851Z,10.75
2023-10-12T01:03:07.168Z,10.78
2023-10-12T01:05:38.108Z,10.80
2023-10-12T01:08:05.816Z,10.80
2023-10-12T01:10:38.873Z,10.82
2023-10-12T01:13:06.059Z,10.82
2023-10-12T01:15:33.943Z,10.81
2023-10-12T01:18:01.327Z,10.82
2023-10-12T01:20:30.497Z,10.81
2023-10-12T01:22:58.989Z,10.82
2023-10-12T01:25:29.954Z,10.81
2023-10-12T01:27:57.452Z,10.81
2023-10-12T01:30:25.071Z,10.79
2023-10-12T01:32:58.941Z,10.79
2023-10-12T01:35:39.434Z,10.78
2023-10-12T01:38:09.347Z,10.76
2023-10-12T01:40:56.010Z,10.73
2023-10-12T01:43:24.392Z,10.70
2023-10-12T01:46:10.255Z,10.69
2023-10-12T01:48:38.515Z,10.66
2023-10-12T01:51:15.901Z,10.64
2023-10-12T01:53:43.446Z,10.59
2023-10-12T01:56:11.843Z,10.56
2023-10-12T01:58:39.350Z,10.52
2023-10-12T02:01:07.915Z,10.49
2023-10-12T02:03:43.808Z,10.48
2023-10-12T02:06:24.112Z,10.45
2023-10-12T02:08:54.127Z,10.41
2023-10-12T02:11:21.671Z,10.38
2023-10-12T02:13:49.507Z,10.37
2023-10-12T02:16:25.840Z,10.35
2023-10-12T02:18:56.589Z,10.33
2023-10-12T02:21:26.710Z,10.31
2023-10-12T02:23:54.364Z,10.29
2023-10-12T02:26:39.245Z,10.27
2023-10-12T02:29:10.438Z,10.23
2023-10-12T02:31:51.453Z,10.18
2023-10-12T02:34:19.495Z,10.14
2023-10-12T02:37:01.923Z,10.10
2023-10-12T02:39:38.877Z,10.07
2023-10-12T02:42:19.224Z,10.04
2023-10-12T02:44:56.202Z,10.01
2023-10-12T02:47:24.940Z,9.99
2023-10-12T02:50:01.825Z,9.97
2023-10-12T02:52:32.108Z,9.95
2023-10-12T02:55:08.253Z,9.94
2023-10-12T02:57:35.548Z,9.92
2023-10-12T03:00:21.029Z,9.88
2023-10-12T03:02:50.229Z,9.85
2023-10-12T03:05:31.942Z,9.84
2023-10-12T03:08:07.377Z,9.81
2023-10-12T03:10:36.981Z,9.79
2023-10-12T03:13:06.122Z,9.79
2023-10-12T03:15:43.828Z,9.78
2023-10-12T03:18:14.611Z,9.77
2023-10-12T03:21:01.813Z,9.75
2023-10-12T03:23:30.655Z,9.76
2023-10-12T03:25:57.864Z,9.76
2023-10-12T03:28:31.945Z,9.74
2023-10-12T03:31:18.057Z,9.73
2023-10-12T03:33:48.221Z,9.71
2023-10-12T03:36:24.671Z,9.68
2023-10-12T03:39:14.977Z,9.67
2023-10-12T03:42:05.256Z,9.65
2023-10-12T03:44:41.554Z,9.65
2023-10-12T03:47:17.167Z,9.63
2023-10-12T03:49:54.162Z,9.61
2023-10-12T03:52:43.909Z,9.59
2023-10-12T03:55:17.476Z,9.57
2023-10-12T03:58:00.855Z,9.56
2023-10-12T04:00:35.958Z,9.53
2023-10-12T04:05:57.793Z,9.52
2023-10-12T04:08:27.970Z,9.52
2023-10-12T04:10:58.063Z,9.53
2023-10-12T04:13:28.192Z,9.55
2023-10-12T04:18:43.917Z,9.58
2023-10-12T04:21:11.626Z,9.57
2023-10-12T04:24:05.219Z,9.57
2023-10-12T04:26:35.241Z,9.59
2023-10-12T04:29:09.270Z,9.60
2023-10-12T04:31:50.492Z,9.63
2023-10-12T04:34:27.326Z,9.69
2023-10-12T04:37:10.753Z,9.74
2023-10-12T04:39:38.680Z,9.77
2023-10-12T04:42:13.581Z,9.87
2023-10-12T04:44:53.618Z,10.02
2023-10-12T04:47:24.993Z,10.15
2023-10-12T04:49:52.344Z,10.27
2023-10-12T04:52:25.980Z,10.51
2023-10-12T04:55:14.969Z,10.74
2023-10-12T04:57:43.091Z,10.95
2023-10-12T05:00:26.142Z,11.20
2023-10-12T05:02:56.277Z,11.55
2023-10-12T05:05:24.400Z,11.89
2023-10-12T05:07:55.867Z,12.26
2023-10-12T05:10:28.612Z,12.67
2023-10-12T05:13:05.150Z,12.99
2023-10-12T05:15:41.445Z,13.36
2023-10-12T05:18:09.391Z,13.67
2023-10-12T05:20:37.127Z,13.78
2023-10-12T05:23:04.654Z,13.84
2023-10-12T05:25:49.291Z,13.87
2023-10-12T05:28:19.193Z,13.86
2023-10-12T05:30:56.872Z,13.82
2023-10-12T05:33:36.525Z,13.77
2023-10-12T05:36:12.957Z,13.74
2023-10-12T05:38:40.998Z,13.69
2023-10-12T05:41:12.148Z,13.66
2023-10-12T05:43:41.357Z,13.61
2023-10-12T05:46:15.292Z,13.56
2023-10-12T05:48:53.085Z,13.54
2023-10-12T05:51:22.786Z,13.51
2023-10-12T05:53:50.223Z,13.47
2023-10-12T05:56:18.987Z,13.44
2023-10-12T05:58:46.223Z,13.43
2023-10-12T06:04:10.053Z,13.41
2023-10-12T06:06:43.199Z,13.34
2023-10-12T06:09:14.985Z,13.31
2023-10-12T06:11:43.340Z,13.33
2023-10-12T06:14:10.989Z,13.41
2023-10-12T06:16:41.842Z,13.49
2023-10-12T06:19:19.568Z,13.53
2023-10-12T06:21:47.344Z,13.56
2023-10-12T06:24:22.037Z,13.59
2023-10-12T06:26:49.622Z,13.61
2023-10-12T06:29:25.930Z,13.62
2023-10-12T06:31:54.973Z,13.66
2023-10-12T06:34:23.351Z,13.72
2023-10-12T06:36:59.514Z,13.76
2023-10-12T06:39:26.931Z,13.82
2023-10-12T06:41:54.238Z,13.85
2023-10-12T06:44:27.738Z,13.96
2023-10-12T06:47:16.683Z,14.14
2023-10-12T06:49:45.412Z,14.32
2023-10-12T06:52:15.344Z,14.47
2023-10-12T06:54:50.880Z,14.63
2023-10-12T06:57:18.357Z,14.80
2023-10-12T07:00:01.358Z,14.96
2023-10-12T07:02:30.075Z,15.12
2023-10-12T07:05:02.823Z,15.25
2023-10-12T07:07:38.348Z,15.41
2023-10-12T07:10:12.233Z,15.56
2023-10-12T07:12:48.837Z,15.68
2023-10-12T07:15:23.667Z,15.80
2023-10-12T07:17:51.558Z,15.85
2023-10-12T07:20:28.660Z,15.89
2023-10-12T07:22:56.767Z,15.95
2023-10-12T07:25:26.335Z,16.00
2023-10-12T07:28:02.835Z,16.10
2023-10-12T07:30:37.548Z,16.25
2023-10-12T07:33:08.996Z,16.41
2023-10-12T07:35:37.136Z,16.63
2023-10-12T07:38:13.986Z,16.84
2023-10-12T07:41:02.370Z,17.00
2023-10-12T07:43:32.705Z,17.14
2023-10-12T07:46:26.702Z,17.30
2023-10-12T07:48:54.431Z,17.51
2023-10-12T07:51:27.697Z,17.64
2023-10-12T07:54:01.715Z,17.78
2023-10-12T07:56:35.897Z,17.87
2023-10-12T07:59:03.436Z,17.97
2023-10-12T08:01:30.841Z,18.10
2023-10-12T08:04:01.769Z,18.28
2023-10-12T08:06:35.308Z,18.47
2023-10-12T08:09:21.010Z,18.62
2023-10-12T08:11:48.401Z,18.70
2023-10-12T08:14:24.802Z,18.72
2023-10-12T08:17:11.304Z,18.68
2023-10-12T08:19:44.517Z,18.61
2023-10-12T08:22:27.467Z,18.58
2023-10-12T08:24:58.146Z,18.54
2023-10-12T08:27:27.117Z,18.51
2023-10-12T08:29:54.396Z,18.50
2023-10-12T08:32:27.813Z,18.57
2023-10-12T08:35:01.735Z,18.68
2023-10-12T08:37:29.147Z,18.79
2023-10-12T08:39:59.514Z,18.96
2023-10-12T08:42:33.584Z,19.11
2023-10-12T08:45:16.740Z,19.24
2023-10-12T08:47:50.291Z,19.35
2023-10-12T08:50:17.793Z,19.48
2023-10-12T08:52:51.945Z,19.58
2023-10-12T08:55:26.608Z,19.69
2023-10-12T08:58:16.758Z,19.85
2023-10-12T09:01:02.498Z,19.99
2023-10-12T09:03:33.858Z,20.00
2023-10-12T09:06:03.317Z,20.08
2023-10-12T09:08:30.512Z,20.20
2023-10-12T09:11:09.752Z,20.28
2023-10-12T09:13:38.135Z,20.40
2023-10-12T09:16:08.501Z,20.51
2023-10-12T09:18:45.363Z,20.61
2023-10-12T09:21:39.738Z,20.65
2023-10-12T09:24:29.218Z,20.73
2023-10-12T09:27:01.854Z,20.74
2023-10-12T09:29:32.325Z,20.78
2023-10-12T09:32:16.978Z,20.84
2023-10-12T09:34:57.158Z,20.92
2023-10-12T09:37:30.098Z,21.00
2023-10-12T09:39:57.582Z,21.10
2023-10-12T09:42:28.470Z,21.17
2023-10-12T09:45:03.091Z,21.24
2023-10-12T09:47:51.847Z,21.34
2023-10-12T09:50:20.173Z,21.47
2023-10-12T09:52:58.826Z,21.57
2023-10-12T09:55:33.635Z,21.63
2023-10-12T09:58:13.907Z,21.67
2023-10-12T10:01:00.392Z,21.75
2023-10-12T10:03:38.889Z,21.85
2023-10-12T10:06:20.156Z,21.88
2023-10-12T10:09:01.397Z,21.92
2023-10-12T10:11:28.797Z,21.99
2023-10-12T10:13:56.180Z,22.02
2023-10-12T10:16:23.532Z,22.06
2023-10-12T10:18:58.419Z,22.09
2023-10-12T10:21:32.213Z,22.09
2023-10-12T10:24:00.275Z,22.10
2023-10-12T10:26:35.657Z,22.09
2023-10-12T10:29:06.389Z,22.10
2023-10-12T10:31:35.353Z,22.14
2023-10-12T10:34:06.493Z,22.19
2023-10-12T10:36:37.641Z,22.28
2023-10-12T10:39:37.557Z,22.39
2023-10-12T10:42:09.482Z,22.43
2023-10-12T10:44:43.271Z,22.43
2023-10-12T10:47:16.930Z,22.49
2023-10-12T10:49:50.063Z,22.52
2023-10-12T10:52:21.923Z,22.51
2023-10-12T10:54:58.403Z,22.49
2023-10-12T10:57:39.485Z,22.47
2023-10-12T11:00:18.427Z,22.45
2023-10-12T11:02:48.931Z,22.45
2023-10-12T11:05:20.761Z,22.44
2023-10-12T11:07:53.880Z,22.46
2023-10-12T11:10:33.010Z,22.49
2023-10-12T11:13:02.294Z,22.54
2023-10-12T11:15:29.953Z,22.61
2023-10-12T11:17:57.878Z,22.68
2023-10-12T11:20:28.807Z,22.72
2023-10-12T11:22:56.324Z,22.77
2023-10-12T11:25:23.552Z,22.79
2023-10-12T11:27:52.766Z,22.80
2023-10-12T11:30:33.355Z,22.82
2023-10-12T11:33:01.566Z,22.83
2023-10-12T11:35:42.612Z,22.84
2023-10-12T11:38:19.023Z,22.85
2023-10-12T11:40:53.721Z,22.87
2023-10-12T11:43:22.674Z,22.91
2023-10-12T11:46:03.523Z,22.98
2023-10-12T11:48:31.816Z,23.04
2023-10-12T11:51:01.436Z,23.09
2023-10-12T11:53:29.780Z,23.14
2023-10-12T11:56:14.504Z,23.19
2023-10-12T11:58:42.470Z,23.22
2023-10-12T12:01:11.462Z,23.20
2023-10-12T12:03:42.100Z,23.16
2023-10-12T12:06:22.654Z,23.11
2023-10-12T12:08:50.611Z,23.06
2023-10-12T12:11:21.422Z,23.02
2023-10-12T12:13:49.386Z,22.94
2023-10-12T12:16:21.493Z,22.92
2023-10-12T12:18:53.382Z,22.90
2023-10-12T12:21:30.542Z,22.86
2023-10-12T12:24:02.234Z,22.82
2023-10-12T12:26:35.036Z,22.76
2023-10-12T12:29:06.290Z,22.70
2023-10-12T12:31:34.017Z,22.68
2023-10-12T12:34:07.740Z,22.67
2023-10-12T12:36:35.281Z,22.65
2023-10-12T12:39:10.368Z,22.64
2023-10-12T12:41:37.953Z,22.67
2023-10-12T12:44:09.625Z,22.66
2023-10-12T12:46:38.575Z,22.65
2023-10-12T12:49:08.241Z,22.69
2023-10-12T12:51:36.153Z,22.71
2023-10-12T12:54:03.807Z,22.69
2023-10-12T12:56:31.050Z,22.66
2023-10-12T12:58:58.268Z,22.62
2023-10-12T13:01:26.249Z,22.60
2023-10-12T13:03:56.679Z,22.56
2023-10-12T13:06:25.242Z,22.50
2023-10-12T13:08:52.743Z,22.44
2023-10-12T13:11:20.793Z,22.40
2023-10-12T13:13:51.658Z,22.38
2023-10-12T13:16:19.127Z,22.33
2023-10-12T13:18:50.066Z,22.27
2023-10-12T13:21:18.066Z,22.24
2023-10-12T13:23:46.392Z,22.22
2023-10-12T13:26:15.505Z,22.19
2023-10-12T13:28:43.785Z,22.17
2023-10-12T13:31:14.607Z,22.17
2023-10-12T13:33:45.102Z,22.15
2023-10-12T13:36:12.758Z,22.11
2023-10-12T13:38:40.973Z,22.08
2023-10-12T13:41:12.629Z,22.06
2023-10-12T13:43:40.635Z,22.04
2023-10-12T13:46:12.751Z,21.99
2023-10-12T13:48:42.405Z,21.94
2023-10-12T13:51:14.460Z,21.89
2023-10-12T13:53:42.692Z,21.85
2023-10-12T13:56:10.878Z,21.81
2023-10-12T13:58:43.414Z,21.76
2023-10-12T14:01:16.067Z,21.71
2023-10-12T14:03:47.019Z,21.64
2023-10-12T14:06:14.693Z,21.56
2023-10-12T14:08:42.369Z,21.48
2023-10-12T14:11:17.540Z,21.43
2023-10-12T14:13:45.427Z,21.39
2023-10-12T14:16:13.271Z,21.35
2023-10-12T14:18:40.921Z,21.29
2023-10-12T14:21:11.507Z,21.25
2023-10-12T14:23:41.743Z,21.22
2023-10-12T14:26:10.990Z,21.16
2023-10-12T14:28:39.905Z,21.11
2023-10-12T14:31:07.488Z,21.06
2023-10-12T14:33:36.365Z,21.01
2023-10-12T14:36:06.926Z,20.96
2023-10-12T14:38:35.947Z,20.91
2023-10-12T14:41:11.282Z,20.85
2023-10-12T14:43:39.146Z,20.80
2023-10-12T14:46:06.923Z,20.76
2023-10-12T14:48:34.364Z,20.72
2023-10-12T14:51:09.683Z,20.67
2023-10-12T14:53:37.441Z,20.61
2023-10-12T14:56:05.216Z,20.57
2023-10-12T14:58:32.746Z,20.53
2023-10-12T15:01:00.782Z,20.47
2023-10-12T15:03:35.797Z,20.40
2023-10-12T15:06:04.174Z,20.34
2023-10-12T15:08:31.926Z,20.29
2023-10-12T15:11:00.914Z,20.22
2023-10-12T15:13:28.441Z,20.14
2023-10-12T15:15:58.416Z,20.08
2023-10-12T15:18:26.351Z,20.03
2023-10-12T15:21:02.737Z,19.96
2023-10-12T15:23:36.345Z,19.91
2023-10-12T15:26:03.619Z,19.88
2023-10-12T15:28:30.896Z,19.84
2023-10-12T15:30:58.265Z,19.79
2023-10-12T15:33:26.492Z,19.72
2023-10-12T15:35:53.781Z,19.67
2023-10-12T15:38:20.989Z,19.62
2023-10-12T15:40:48.193Z,19.56
2023-10-12T15:43:18.378Z,19.51
2023-10-12T15:45:48.052Z,19.44
2023-10-12T15:48:15.701Z,19.38
2023-10-12T15:50:43.063Z,19.33
2023-10-12T15:53:10.875Z,19.28
2023-10-12T15:55:40.492Z,19.22
2023-10-12T15:58:13.054Z,19.18
2023-10-12T16:00:40.659Z,19.12
2023-10-12T16:03:08.404Z,19.06
2023-10-12T16:05:36.118Z,18.99
2023-10-12T16:08:11.963Z,18.93
2023-10-12T16:10:39.573Z,18.88
2023-10-12T16:13:09.976Z,18.82
2023-10-12T16:15:40.310Z,18.77
2023-10-12T16:18:09.800Z,18.74
2023-10-12T16:20:37.099Z,18.68
2023-10-12T16:23:04.575Z,18.65
2023-10-12T16:25:32.284Z,18.61
2023-10-12T16:27:59.903Z,18.57
2023-10-12T16:30:31.471Z,18.53
2023-10-12T16:32:59.012Z,18.49
2023-10-12T16:36:34.185Z,18.46
2023-10-12T16:39:01.666Z,18.40
2023-10-12T16:41:29.199Z,18.35
2023-10-12T16:43:57.992Z,18.33
2023-10-12T16:46:26.048Z,18.28
2023-10-12T16:48:53.716Z,18.23
2023-10-12T16:51:21.405Z,18.20
2023-10-12T16:53:48.813Z,18.16
2023-10-12T16:56:16.149Z,18.12
2023-10-12T16:58:43.393Z,18.07
2023-10-12T17:01:12.496Z,18.03
2023-10-12T17:03:40.224Z,17.99
2023-10-12T17:06:07.818Z,17.96
2023-10-12T17:08:35.501Z,17.92
2023-10-12T17:11:02.805Z,17.87
2023-10-12T17:13:30.414Z,17.83
2023-10-12T17:15:58.731Z,17.79
2023-10-12T17:18:26.940Z,17.75
2023-10-12T17:20:54.680Z,17.71
2023-10-12T17:23:29.202Z,17.67
2023-10-12T17:26:00.310Z,17.62
2023-10-12T17:28:31.761Z,17.59
2023-10-12T17:31:07.352Z,17.55
2023-10-12T17:33:36.627Z,17.50
2023-10-12T17:36:12.603Z,17.46
2023-10-12T17:38:40.316Z,17.41
2023-10-12T17:41:07.638Z,17.36
2023-10-12T17:43:34.984Z,17.31
2023-10-12T17:46:02.845Z,17.28
2023-10-12T17:48:30.164Z,17.26
2023-10-12T17:50:59.148Z,17.24
2023-10-12T17:53:28.564Z,17.20
2023-10-12T17:55:56.541Z,17.17
2023-10-12T17:58:25.296Z,17.15
2023-10-12T18:00:52.946Z,17.13
2023-10-12T18:03:20.584Z,17.11
2023-10-12T18:05:54.204Z,17.10
2023-10-12T18:08:21.479Z,17.08
2023-10-12T18:10:49.170Z,17.06
2023-10-12T18:13:18.157Z,17.04
2023-10-12T18:15:49.220Z,17.03
2023-10-12T18:18:16.508Z,17.02
2023-10-12T18:20:46.735Z,17.00
2023-10-12T18:23:17.187Z,16.97
2023-10-12T18:25:44.617Z,16.95
2023-10-12T18:28:17.751Z,16.95
2023-10-12T18:30:46.093Z,16.94
2023-10-12T18:33:13.537Z,16.93
2023-10-12T18:35:50.243Z,16.93
2023-10-12T18:38:17.783Z,16.93
2023-10-12T18:40:45.067Z,16.92
2023-10-12T18:43:15.388Z,16.91
2023-10-12T18:45:55.912Z,16.91
2023-10-12T18:48:24.783Z,16.91
2023-10-12T18:51:01.822Z,16.90
2023-10-12T18:53:29.855Z,16.90
2023-10-12T18:56:04.531Z,16.89
2023-10-12T18:58:32.651Z,16.90
2023-10-12T19:01:00.346Z,16.89
2023-10-12T19:03:31.199Z,16.89
2023-10-12T19:06:01.808Z,16.89
2023-10-12T19:08:29.169Z,16.89
2023-10-12T19:10:57.180Z,16.89
2023-10-12T19:13:25.876Z,16.89
2023-10-12T19:15:54.060Z,16.89
2023-10-12T19:18:22.797Z,16.89
2023-10-12T19:20:59.188Z,16.89
2023-10-12T19:23:27.315Z,16.91
2023-10-12T19:25:57.057Z,16.91
2023-10-12T19:28:28.194Z,16.91
2023-10-12T19:30:57.490Z,16.91
2023-10-12T19:33:24.930Z,16.92
2023-10-12T19:35:52.472Z,16.93
2023-10-12T19:38:22.744Z,16.94
2023-10-12T19:40:49.984Z,16.94
2023-10-12T19:43:18.604Z,16.96
2023-10-12T19:45:46.201Z,16.97
2023-10-12T19:48:15.007Z,16.98
2023-10-12T19:50:44.079Z,16.98
2023-10-12T19:53:15.490Z,16.99
2023-10-12T19:55:42.848Z,16.99
2023-10-12T19:58:10.857Z,16.99
2023-10-12T20:00:40.961Z,17.01
2023-10-12T20:03:17.831Z,17.00
2023-10-12T20:05:49.250Z,17.01
2023-10-12T20:08:17.521Z,17.01
2023-10-12T20:10:52.662Z,17.02
2023-10-12T20:13:21.035Z,17.02
2023-10-12T20:15:49.858Z,17.02
2023-10-12T20:18:17.598Z,17.03
2023-10-12T20:20:45.176Z,17.03
2023-10-12T20:23:15.316Z,17.04
2023-10-12T20:25:49.108Z,17.04
2023-10-12T20:28:17.372Z,17.05
2023-10-12T20:30:48.675Z,17.05
2023-10-12T20:33:17.320Z,17.04
2023-10-12T20:35:48.127Z,17.05
2023-10-12T20:38:16.975Z,17.04
2023-10-12T20:40:45.965Z,17.04
2023-10-12T20:43:16.761Z,17.03
2023-10-12T20:45:55.619Z,17.01
2023-10-12T20:48:23.904Z,17.00
2023-10-12T20:50:58.286Z,16.98
2023-10-12T20:53:25.565Z,16.96
2023-10-12T20:55:53.113Z,16.93
2023-10-12T20:58:24.318Z,16.91
2023-10-12T21:00:53.032Z,16.88
2023-10-12T21:03:23.263Z,16.84
2023-10-12T21:05:51.158Z,16.79
2023-10-12T21:08:21.246Z,16.75
2023-10-12T21:10:59.220Z,16.72
2023-10-12T21:13:27.467Z,16.67
2023-10-12T21:15:55.197Z,16.64
2023-10-12T21:18:35.469Z,16.60
2023-10-12T21:21:10.997Z,16.56
2023-10-12T21:23:47.480Z,16.51
2023-10-12T21:26:36.568Z,16.47
2023-10-12T21:29:12.592Z,16.41
2023-10-12T21:31:43.456Z,16.35
2023-10-12T21:34:14.449Z,16.31
2023-10-12T21:36:43.480Z,16.26
2023-10-12T21:39:12.576Z,16.23
2023-10-12T21:41:39.963Z,16.22
2023-10-12T21:44:11.048Z,16.21
2023-10-12T21:46:45.088Z,16.21
2023-10-12T21:49:12.539Z,16.20
2023-10-12T21:51:39.945Z,16.17
2023-10-12T21:54:07.209Z,16.15
2023-10-12T21:56:35.116Z,16.12
2023-10-12T21:59:02.920Z,16.11
2023-10-12T22:01:36.778Z,16.08
2023-10-12T22:04:05.489Z,16.06
2023-10-12T22:06:34.140Z,16.05
2023-10-12T22:09:02.824Z,16.03
2023-10-12T22:11:35.063Z,16.01
2023-10-12T22:14:16.862Z,15.98
2023-10-12T22:16:51.203Z,15.97
2023-10-12T22:19:22.360Z,15.94
2023-10-12T22:21:49.990Z,15.90
2023-10-12T22:24:17.670Z,15.88
2023-10-12T22:26:44.998Z,15.87
2023-10-12T22:29:12.310Z,15.87
2023-10-12T22:31:39.635Z,15.89
2023-10-12T22:34:09.919Z,15.90
2023-10-12T22:36:37.521Z,15.90
2023-10-12T22:39:16.774Z,15.92
2023-10-12T22:41:44.359Z,15.92
2023-10-12T22:44:11.564Z,15.92
2023-10-12T22:46:38.877Z,15.92
2023-10-12T22:49:07.278Z,15.90
2023-10-12T22:51:38.178Z,15.89
2023-10-12T22:54:06.277Z,15.87
2023-10-12T22:56:34.446Z,15.83
2023-10-12T22:59:01.708Z,15.77
2023-10-12T23:01:29.836Z,15.72
2023-10-12T23:03:57.414Z,15.67
2023-10-12T23:06:24.658Z,15.63
2023-10-12T23:08:51.899Z,15.59
2023-10-12T23:11:19.609Z,15.55
2023-10-12T23:13:51.723Z,15.51
2023-10-12T23:16:31.780Z,15.47
2023-10-12T23:19:02.122Z,15.43
2023-10-12T23:21:39.803Z,15.41
2023-10-12T23:24:13.326Z,15.37
2023-10-12T23:26:40.647Z,15.35
2023-10-12T23:29:08.708Z,15.32
2023-10-12T23:31:42.214Z,15.30
2023-10-12T23:34:22.096Z,15.27
2023-10-12T23:37:08.854Z,15.25
2023-10-12T23:39:53.718Z,15.22
2023-10-12T23:42:23.353Z,15.19
2023-10-12T23:44:50.871Z,15.16
2023-10-12T23:47:25.031Z,15.14
2023-10-12T23:50:10.870Z,15.08
2023-10-12T23:52:57.048Z,15.04
2023-10-12T23:55:31.166Z,15.01
2023-10-12T23:58:02.183Z,14.99
